Time;durP1;ratioP1;P1;durP2;ratioP2;P2;SDS_P1;SDS_P2;PMS_P1;PMS_P2;Temp;Humidity;BMP_temperature;BMP_pressure;BME280_temperature;BME280_humidity;BME280_pressure;Samples;Min_cycle;Max_cycle;Signal;HPM_P1;HPM_P2
2023/04/24 00:00:44;;;;;;;12.55;3.72;;;17.60;74.80;;;;;;5035446;28;20191;-77
2023/04/24 00:03:10;;;;;;;10.68;3.70;;;17.50;74.50;;;;;;5035288;28;20037;-79
2023/04/24 00:05:36;;;;;;;14.35;3.78;;;17.50;74.50;;;;;;5035294;28;20414;-77
2023/04/24 00:08:02;;;;;;;9.55;3.15;;;17.50;74.10;;;;;;5034918;28;20108;-79
2023/04/24 00:10:27;;;;;;;9.52;3.38;;;17.50;73.80;;;;;;5035433;28;20029;-78
2023/04/24 00:12:53;;;;;;;15.20;3.65;;;17.50;73.70;;;;;;5035359;28;20029;-79
2023/04/24 00:15:19;;;;;;;18.08;3.80;;;17.50;73.40;;;;;;5035007;28;20406;-78
2023/04/24 00:17:44;;;;;;;10.00;3.50;;;17.50;73.30;;;;;;5035208;28;20040;-79
2023/04/24 00:20:10;;;;;;;12.60;3.20;;;17.40;73.00;;;;;;5032492;28;20037;-79
2023/04/24 00:22:36;;;;;;;10.55;3.45;;;17.40;73.00;;;;;;5034778;28;20498;-78
2023/04/24 00:25:02;;;;;;;9.63;3.42;;;17.40;72.70;;;;;;5035128;28;20034;-79
2023/04/24 00:27:27;;;;;;;14.13;3.17;;;17.40;72.80;;;;;;5034934;28;20040;-79
2023/04/24 00:29:53;;;;;;;11.70;4.10;;;17.40;72.40;;;;;;5036340;28;20073;-78
2023/04/24 00:32:19;;;;;;;11.30;3.03;;;17.30;72.40;;;;;;5038245;28;20046;-79
2023/04/24 00:34:44;;;;;;;11.07;3.40;;;17.30;72.20;;;;;;5035818;28;20105;-79
2023/04/24 00:37:11;;;;;;;10.73;3.05;;;17.30;72.20;;;;;;5034938;28;20028;-80
2023/04/24 00:39:37;;;;;;;9.32;3.20;;;17.30;72.30;;;;;;5033447;28;20060;-78
2023/04/24 00:42:02;;;;;;;11.45;3.30;;;17.30;71.90;;;;;;5034674;28;20037;-78
2023/04/24 00:44:28;;;;;;;9.52;3.22;;;17.20;71.90;;;;;;5016741;28;20037;-78
2023/04/24 00:46:55;;;;;;;11.30;3.17;;;17.20;71.90;;;;;;5034661;28;20037;-78
2023/04/24 00:49:21;;;;;;;10.55;3.25;;;17.20;71.70;;;;;;5034332;28;20029;-78
2023/04/24 00:51:49;;;;;;;8.40;3.13;;;17.20;71.60;;;;;;5016865;28;20098;-79
2023/04/24 00:54:15;;;;;;;7.97;2.75;;;17.20;71.60;;;;;;5034221;28;20124;-79
2023/04/24 00:56:42;;;;;;;10.50;2.97;;;17.20;71.60;;;;;;5034343;28;20034;-78
2023/04/24 00:59:08;;;;;;;9.18;3.20;;;17.20;71.30;;;;;;5049187;28;20037;-79
2023/04/24 01:01:34;;;;;;;11.13;3.38;;;17.20;71.40;;;;;;5016478;28;20042;-78
2023/04/24 01:04:00;;;;;;;19.40;3.28;;;17.20;71.30;;;;;;5049565;28;20144;-77
2023/04/24 01:06:30;;;;;;;12.63;3.65;;;17.20;71.40;;;;;;5033760;28;20038;-79
2023/04/24 01:08:57;;;;;;;16.85;3.60;;;17.20;71.10;;;;;;5034267;28;20104;-78
2023/04/24 01:11:23;;;;;;;13.00;3.63;;;17.10;71.10;;;;;;5034136;28;20034;-79
2023/04/24 01:13:48;;;;;;;10.35;3.28;;;17.20;71.30;;;;;;5034238;28;20029;-78
2023/04/24 01:16:17;;;;;;;8.65;3.25;;;17.10;71.00;;;;;;5035484;28;20033;-78
2023/04/24 01:18:43;;;;;;;9.50;3.10;;;17.10;71.00;;;;;;5035313;28;20053;-78
2023/04/24 01:21:10;;;;;;;9.02;3.40;;;17.10;70.90;;;;;;5033750;28;20048;-78
2023/04/24 01:23:35;;;;;;;12.00;3.35;;;17.20;71.00;;;;;;5016100;28;20041;-78
2023/04/24 01:26:01;;;;;;;12.90;3.67;;;17.20;71.00;;;;;;5033906;28;20034;-78
2023/04/24 01:28:27;;;;;;;11.80;3.00;;;17.20;71.10;;;;;;5034137;28;20107;-77
2023/04/24 01:30:53;;;;;;;9.98;2.85;;;17.20;71.00;;;;;;5033996;28;20372;-77
2023/04/24 01:33:21;;;;;;;11.02;3.28;;;17.30;71.00;;;;;;5033605;28;20033;-79
2023/04/24 01:35:48;;;;;;;10.32;3.03;;;17.30;70.90;;;;;;5034437;28;20406;-78
2023/04/24 01:38:14;;;;;;;13.07;3.30;;;17.40;70.60;;;;;;5034122;28;20034;-77
2023/04/24 01:40:40;;;;;;;11.07;3.08;;;17.40;70.80;;;;;;5034030;28;20099;-79
2023/04/24 01:43:06;;;;;;;9.43;3.30;;;17.40;70.80;;;;;;5015954;28;20120;-76
2023/04/24 01:45:31;;;;;;;10.98;3.25;;;17.40;71.60;;;;;;5033642;28;20033;-79
2023/04/24 01:47:57;;;;;;;12.32;2.97;;;17.40;70.60;;;;;;5017558;28;20041;-79
2023/04/24 01:50:23;;;;;;;9.68;2.92;;;17.40;70.70;;;;;;5035923;28;20029;-78
2023/04/24 01:52:49;;;;;;;8.75;3.25;;;17.40;70.70;;;;;;5037120;28;20116;-77
2023/04/24 01:55:14;;;;;;;12.23;3.25;;;17.40;70.90;;;;;;5035060;28;20033;-77
2023/04/24 01:57:40;;;;;;;21.50;3.28;;;17.40;70.90;;;;;;5033699;28;20038;-78
2023/04/24 02:00:07;;;;;;;9.25;3.60;;;17.40;71.00;;;;;;5033483;28;20033;-78
2023/04/24 02:02:33;;;;;;;13.27;3.22;;;17.40;70.90;;;;;;5033184;28;20044;-78
2023/04/24 02:04:59;;;;;;;8.85;3.30;;;17.40;70.70;;;;;;5033730;28;20386;-78
2023/04/24 02:07:24;;;;;;;10.13;3.08;;;17.40;70.40;;;;;;5038786;28;20491;-78
2023/04/24 02:09:50;;;;;;;12.40;3.15;;;17.40;70.50;;;;;;5041807;28;20109;-80
2023/04/24 02:12:17;;;;;;;12.02;3.20;;;17.50;70.60;;;;;;5042818;28;20071;-78
2023/04/24 02:14:43;;;;;;;7.45;2.58;;;17.50;70.60;;;;;;5033934;28;20041;-78
2023/04/24 02:17:09;;;;;;;8.70;2.67;;;17.50;70.20;;;;;;5033703;28;20033;-78
2023/04/24 02:19:35;;;;;;;6.57;2.65;;;17.50;70.30;;;;;;5033901;28;20033;-79
2023/04/24 02:22:01;;;;;;;7.32;3.30;;;17.50;70.40;;;;;;5014879;28;20079;-78
2023/04/24 02:24:26;;;;;;;8.60;3.13;;;17.50;70.50;;;;;;5014998;28;20087;-79
2023/04/24 02:26:52;;;;;;;8.20;2.88;;;17.50;70.40;;;;;;5033233;28;20083;-79
2023/04/24 02:29:18;;;;;;;8.45;3.58;;;17.50;70.70;;;;;;5032253;28;20145;-78
2023/04/24 02:31:43;;;;;;;9.60;3.47;;;17.50;70.60;;;;;;5032638;28;20108;-80
2023/04/24 02:34:09;;;;;;;8.60;3.15;;;17.50;70.70;;;;;;5032751;28;20467;-76
2023/04/24 02:36:35;;;;;;;14.98;3.65;;;17.50;70.80;;;;;;5014696;28;20033;-78
2023/04/24 02:39:01;;;;;;;10.23;3.00;;;17.50;71.00;;;;;;5032533;28;20050;-78
2023/04/24 02:41:31;;;;;;;11.38;3.25;;;17.50;70.90;;;;;;5032760;28;20092;-79
2023/04/24 02:43:58;;;;;;;8.93;3.28;;;17.50;71.90;;;;;;5032374;28;20037;-77
2023/04/24 02:46:25;;;;;;;10.50;3.25;;;17.50;71.30;;;;;;5047629;28;20037;-79
2023/04/24 02:48:50;;;;;;;11.00;3.42;;;17.50;71.30;;;;;;5032184;28;20132;-78
2023/04/24 02:51:16;;;;;;;10.40;3.25;;;17.50;71.50;;;;;;5032505;28;20069;-78
2023/04/24 02:53:42;;;;;;;9.20;3.38;;;17.50;71.60;;;;;;5032427;28;20033;-78
2023/04/24 02:56:07;;;;;;;8.88;3.40;;;17.50;71.80;;;;;;5032416;28;20479;-79
2023/04/24 02:58:33;;;;;;;13.73;3.60;;;17.50;71.80;;;;;;5032281;28;20053;-78
2023/04/24 03:01:00;;;;;;;7.38;3.30;;;17.50;71.70;;;;;;5014105;28;20045;-79
2023/04/24 03:03:25;;;;;;;8.10;3.60;;;17.50;72.10;;;;;;5031902;28;20099;-78
2023/04/24 03:05:51;;;;;;;11.45;3.47;;;17.50;72.00;;;;;;5032335;28;20042;-77
2023/04/24 03:08:17;;;;;;;11.30;3.50;;;17.50;72.20;;;;;;5032029;28;20467;-79
2023/04/24 03:10:43;;;;;;;13.43;3.47;;;17.50;72.10;;;;;;5032678;28;20029;-77
2023/04/24 03:13:09;;;;;;;9.88;3.70;;;17.50;72.30;;;;;;5032425;28;20054;-77
2023/04/24 03:15:34;;;;;;;9.55;3.50;;;17.50;72.30;;;;;;5031904;28;20049;-79
2023/04/24 03:18:00;;;;;;;8.68;2.95;;;17.50;72.50;;;;;;5032283;28;20124;-78
2023/04/24 03:20:26;;;;;;;12.60;3.65;;;17.50;72.60;;;;;;5032063;28;20041;-79
2023/04/24 03:22:52;;;;;;;11.98;3.55;;;17.50;72.60;;;;;;5014192;28;20045;-79
2023/04/24 03:25:18;;;;;;;8.10;3.45;;;17.50;73.00;;;;;;5032175;28;20091;-78
2023/04/24 21:27:52;;;;;;;36.55;6.60;;;17.10;84.00;;;;;;5030107;28;20052;-82
2023/04/24 21:30:19;;;;;;;34.90;7.68;;;17.00;84.20;;;;;;4968033;28;20131;-81
2023/04/24 21:32:45;;;;;;;38.47;7.70;;;17.00;84.60;;;;;;4975894;28;20043;-80
2023/04/24 21:35:11;;;;;;;33.22;6.82;;;17.00;84.30;;;;;;4976517;28;20106;-80
2023/04/24 21:37:38;;;;;;;35.95;7.18;;;16.90;84.50;;;;;;4977293;28;20046;-79
2023/04/24 21:40:04;;;;;;;33.92;7.03;;;16.90;84.70;;;;;;4975549;28;20429;-83
2023/04/24 21:42:30;;;;;;;30.08;7.18;;;16.90;85.00;;;;;;4974435;28;20054;-81
2023/04/24 21:44:55;;;;;;;40.67;7.78;;;16.90;84.90;;;;;;4975624;28;20039;-81
2023/04/24 21:47:21;;;;;;;31.27;7.38;;;16.90;85.10;;;;;;4975685;28;20086;-81
2023/04/24 21:49:47;;;;;;;41.08;8.00;;;16.90;85.30;;;;;;4975236;28;20038;-80
2023/04/24 21:52:12;;;;;;;33.33;7.88;;;16.90;85.40;;;;;;4975356;28;20027;-81
2023/04/24 21:54:38;;;;;;;38.83;8.27;;;17.00;85.50;;;;;;4975610;28;20070;-80
2023/04/24 21:57:04;;;;;;;38.13;7.57;;;17.00;85.80;;;;;;4975996;28;20034;-80
2023/04/24 21:59:30;;;;;;;33.75;7.97;;;16.90;85.70;;;;;;4975319;28;20119;-78
2023/04/24 22:01:56;;;;;;;30.08;7.53;;;16.90;85.80;;;;;;4974853;28;20114;-81
2023/04/24 22:04:21;;;;;;;32.80;7.05;;;16.80;86.00;;;;;;4974873;28;20043;-81
2023/04/24 22:06:47;;;;;;;32.45;7.40;;;16.90;86.10;;;;;;4974764;28;20035;-80
2023/04/24 22:09:13;;;;;;;32.47;7.57;;;16.80;86.20;;;;;;4989866;28;20463;-82
2023/04/24 22:11:40;;;;;;;30.25;6.60;;;16.80;86.30;;;;;;4989832;28;20038;-80
2023/04/24 22:14:06;;;;;;;34.53;7.45;;;16.80;86.30;;;;;;4974905;28;20044;-80
2023/04/24 22:16:33;;;;;;;32.03;7.50;;;16.80;86.50;;;;;;4974780;28;20173;-79
2023/04/24 22:18:58;;;;;;;31.45;7.93;;;16.70;86.60;;;;;;4975013;28;20042;-80
2023/04/24 22:21:25;;;;;;;31.45;7.40;;;16.70;87.00;;;;;;4974764;28;20027;-80
2023/04/24 22:23:50;;;;;;;27.70;6.32;;;16.70;87.00;;;;;;4974948;28;20046;-79
2023/04/24 22:26:16;;;;;;;40.92;7.43;;;16.80;87.30;;;;;;4975306;28;20031;-80
2023/04/24 22:28:42;;;;;;;26.65;7.53;;;16.80;87.40;;;;;;4972573;28;20049;-80
2023/04/24 22:31:08;;;;;;;39.22;7.45;;;16.80;87.30;;;;;;4955408;29;20541;-81
2023/04/24 22:33:33;;;;;;;29.90;7.05;;;16.80;87.30;;;;;;4955176;29;20555;-79
2023/04/24 22:36:00;;;;;;;39.60;8.10;;;16.80;87.40;;;;;;4956163;29;20034;-79
2023/04/24 22:38:25;;;;;;;33.90;7.60;;;16.80;87.50;;;;;;4955120;29;20160;-80
2023/04/24 22:40:52;;;;;;;39.95;6.45;;;16.90;87.70;;;;;;4955381;29;20087;-80
2023/04/24 22:43:18;;;;;;;38.13;8.38;;;16.80;87.50;;;;;;4955154;29;20066;-81
2023/04/24 22:45:44;;;;;;;36.55;7.93;;;16.80;87.30;;;;;;4955127;29;20039;-81
2023/04/24 22:48:09;;;;;;;33.55;6.28;;;16.80;87.70;;;;;;4970466;28;20113;-81
2023/04/24 22:50:36;;;;;;;35.78;6.55;;;16.80;87.70;;;;;;4955200;29;20031;-80
2023/04/24 22:53:01;;;;;;;32.60;6.97;;;16.80;87.70;;;;;;4955423;29;20560;-80
2023/04/24 22:55:27;;;;;;;35.47;6.80;;;16.70;87.80;;;;;;4954963;29;20107;-80
2023/04/24 22:57:53;;;;;;;41.72;6.57;;;16.70;87.80;;;;;;4970024;28;20482;-80
2023/04/24 23:00:19;;;;;;;29.20;5.68;;;16.70;88.00;;;;;;4954728;29;20051;-80
2023/04/24 23:02:45;;;;;;;31.05;7.03;;;16.60;87.90;;;;;;4954644;29;20039;-78
2023/04/24 23:05:11;;;;;;;31.85;6.45;;;16.60;88.20;;;;;;4954805;29;20442;-80
2023/04/24 23:07:37;;;;;;;30.80;6.40;;;16.60;88.40;;;;;;4954788;29;20094;-79
2023/04/24 23:10:04;;;;;;;41.85;7.35;;;16.50;88.40;;;;;;4937370;29;20036;-79
2023/04/24 23:12:30;;;;;;;30.33;6.32;;;16.50;88.50;;;;;;4971370;28;20035;-80
2023/04/24 23:14:56;;;;;;;32.70;6.38;;;16.50;88.50;;;;;;4958762;29;20378;-79
2023/04/24 23:17:22;;;;;;;28.77;6.60;;;16.40;88.40;;;;;;4956551;29;20129;-79
2023/04/24 23:19:47;;;;;;;37.17;6.97;;;16.40;88.60;;;;;;4954096;28;20059;-80
2023/04/24 23:22:14;;;;;;;36.20;7.43;;;16.40;88.50;;;;;;4954500;29;20111;-81
2023/04/24 23:24:39;;;;;;;24.75;5.85;;;16.40;88.10;;;;;;4954525;29;20126;-78
2023/04/24 23:27:05;;;;;;;33.28;7.05;;;16.40;88.30;;;;;;4954646;28;20130;-80
2023/04/24 23:29:31;;;;;;;29.98;5.93;;;16.30;88.20;;;;;;4954829;28;20047;-81
2023/04/24 23:31:57;;;;;;;29.48;6.00;;;16.30;88.30;;;;;;4955102;29;20485;-79
2023/04/24 23:34:23;;;;;;;30.80;6.13;;;16.30;88.10;;;;;;4955182;29;20110;-78
2023/04/24 23:36:50;;;;;;;26.90;6.18;;;16.40;88.00;;;;;;4955403;29;20035;-78
2023/04/24 23:39:16;;;;;;;30.83;5.95;;;16.40;87.80;;;;;;4956113;29;20549;-78
2023/04/24 23:41:43;;;;;;;25.98;6.05;;;16.40;87.70;;;;;;4956289;29;20071;-80
2023/04/24 23:44:11;;;;;;;27.83;5.57;;;16.30;87.40;;;;;;4955774;29;20047;-80
2023/04/24 23:46:37;;;;;;;30.17;6.18;;;16.30;88.10;;;;;;4955905;29;20111;-78
2023/04/24 23:49:03;;;;;;;31.38;7.18;;;16.20;87.50;;;;;;4954725;29;20457;-81
2023/04/24 23:51:30;;;;;;;34.80;7.15;;;16.20;87.70;;;;;;4969532;28;20035;-80
2023/04/24 23:53:56;;;;;;;26.02;6.13;;;16.20;87.70;;;;;;4954424;29;20030;-80
2023/04/24 23:56:25;;;;;;;28.58;6.57;;;16.20;87.80;;;;;;4954275;29;20035;-79
2023/04/24 23:58:54;;;;;;;29.52;6.13;;;16.20;88.10;;;;;;4954409;29;20031;-81
